Time;durP1;ratioP1;P1;durP2;ratioP2;P2;SDS_P1;SDS_P2;PMS_P1;PMS_P2;Temp;Humidity;BMP_temperature;BMP_pressure;BME280_temperature;BME280_humidity;BME280_pressure;Samples;Min_cycle;Max_cycle;Signal;HPM_P1;HPM_P2
2024/04/06 00:00:38;;;;;;;3.28;1.92;;;;;;;;;;5000633;28;20424;-83
2024/04/06 00:03:04;;;;;;;3.72;1.83;;;;;;;;;;4995493;28;20054;-81
2024/04/06 00:05:31;;;;;;;3.72;2.10;;;;;;;;;;4984086;28;20054;-81
2024/04/06 00:07:57;;;;;;;4.75;1.83;;;;;;;;;;5003391;28;20468;-81
2024/04/06 00:10:23;;;;;;;6.32;2.40;;;;;;;;;;5011881;28;20054;-81
2024/04/06 00:12:49;;;;;;;4.68;1.75;;;;;;;;;;5019894;28;20053;-81
2024/04/06 00:15:16;;;;;;;2.53;1.50;;;;;;;;;;4992927;28;20058;-81
2024/04/06 00:17:42;;;;;;;4.55;1.83;;;;;;;;;;4988645;28;20433;-82
2024/04/06 00:20:09;;;;;;;6.90;1.85;;;;;;;;;;5006137;28;20058;-81
2024/04/06 00:22:38;;;;;;;5.72;1.48;;;;;;;;;;5014514;28;20523;-82
2024/04/06 00:25:04;;;;;;;4.57;1.85;;;;;;;;;;4992453;28;20054;-82
2024/04/06 00:27:32;;;;;;;3.70;1.60;;;;;;;;;;5004333;28;20574;-81
2024/04/06 00:29:59;;;;;;;3.78;1.58;;;;;;;;;;4997183;28;20053;-82
2024/04/06 00:32:25;;;;;;;2.38;1.70;;;;;;;;;;5004242;28;20409;-82
2024/04/06 00:34:53;;;;;;;2.47;1.90;;;;;;;;;;4992589;28;20528;-82
2024/04/06 00:37:19;;;;;;;3.85;1.50;;;;;;;;;;4993523;28;20050;-81
2024/04/06 00:39:45;;;;;;;2.78;1.73;;;;;;;;;;5001513;28;20409;-81
2024/04/06 00:42:11;;;;;;;2.00;1.30;;;;;;;;;;4993922;28;20113;-81
2024/04/06 00:44:38;;;;;;;1.67;0.90;;;;;;;;;;5005656;28;20053;-82
2024/04/06 00:47:04;;;;;;;2.75;0.85;;;;;;;;;;5007419;28;20054;-82
2024/04/06 00:49:30;;;;;;;1.08;0.60;;;;;;;;;;5022033;28;20080;-82
2024/04/06 00:51:58;;;;;;;2.13;1.00;;;;;;;;;;5015384;28;20062;-83
2024/04/06 00:54:24;;;;;;;1.75;0.90;;;;;;;;;;5006307;28;20120;-83
2024/04/06 00:56:51;;;;;;;2.78;1.15;;;;;;;;;;5014362;28;20069;-83
2024/04/06 00:59:17;;;;;;;2.15;0.77;;;;;;;;;;5004374;28;20080;-82
2024/04/06 01:01:44;;;;;;;2.67;1.10;;;;;;;;;;5019860;28;20475;-82
2024/04/06 01:04:10;;;;;;;1.02;0.95;;;;;;;;;;5002955;28;20527;-82
2024/04/06 01:06:37;;;;;;;2.55;1.08;;;;;;;;;;5003048;28;20042;-82
2024/04/06 01:09:03;;;;;;;1.50;1.02;;;;;;;;;;4998520;28;20049;-81
2024/04/06 01:11:30;;;;;;;2.28;1.00;;;;;;;;;;5014580;28;20050;-82
2024/04/06 01:13:56;;;;;;;5.00;0.88;;;;;;;;;;5014844;28;20049;-82
2024/04/06 01:16:22;;;;;;;1.20;1.10;;;;;;;;;;5024288;28;20042;-83
2024/04/06 01:18:49;;;;;;;1.27;0.98;;;;;;;;;;5026940;28;20061;-82
2024/04/06 01:21:15;;;;;;;1.98;1.00;;;;;;;;;;5020852;28;20046;-82
2024/04/06 01:23:43;;;;;;;2.88;1.20;;;;;;;;;;5011311;28;20046;-82
2024/04/06 01:26:09;;;;;;;3.10;1.08;;;;;;;;;;5031826;28;20061;-82
2024/04/06 01:28:36;;;;;;;1.42;1.10;;;;;;;;;;5026644;28;20054;-82
2024/04/06 01:31:02;;;;;;;3.53;1.08;;;;;;;;;;5007688;28;20120;-82
2024/04/06 01:33:28;;;;;;;1.90;1.10;;;;;;;;;;5008038;28;20080;-83
2024/04/06 01:35:54;;;;;;;1.52;1.00;;;;;;;;;;5007894;28;20070;-82
2024/04/06 01:38:21;;;;;;;2.22;1.50;;;;;;;;;;5002193;28;20054;-81
2024/04/06 01:40:47;;;;;;;2.55;1.23;;;;;;;;;;5005434;28;20053;-80
2024/04/06 01:43:13;;;;;;;5.32;1.33;;;;;;;;;;5013510;28;20049;-81
2024/04/06 01:45:39;;;;;;;1.70;0.88;;;;;;;;;;4996589;28;20054;-81
2024/04/06 01:48:06;;;;;;;1.48;0.85;;;;;;;;;;5010241;28;20084;-82
2024/04/06 01:50:32;;;;;;;2.22;1.23;;;;;;;;;;5018046;28;20050;-81
2024/04/06 01:52:58;;;;;;;1.85;0.90;;;;;;;;;;4997070;28;20475;-82
2024/04/06 01:55:24;;;;;;;2.17;1.17;;;;;;;;;;5014550;28;20104;-81
2024/04/06 01:57:51;;;;;;;1.65;0.90;;;;;;;;;;5006894;28;20057;-81
2024/04/06 02:00:17;;;;;;;1.90;1.00;;;;;;;;;;4997516;28;20054;-81
2024/04/06 02:02:43;;;;;;;2.05;1.02;;;;;;;;;;5014711;28;20182;-81
2024/04/06 02:05:09;;;;;;;4.97;1.10;;;;;;;;;;5011516;28;20054;-82
2024/04/06 02:07:36;;;;;;;2.22;1.00;;;;;;;;;;4998183;28;20050;-80
2024/04/06 02:10:02;;;;;;;1.73;0.90;;;;;;;;;;4998017;28;20512;-81
2024/04/06 02:12:28;;;;;;;1.90;0.88;;;;;;;;;;5013263;28;20057;-81
2024/04/06 02:14:55;;;;;;;3.33;0.88;;;;;;;;;;4993858;28;20060;-81
2024/04/06 02:17:21;;;;;;;1.88;0.80;;;;;;;;;;5006414;28;20057;-82
2024/04/06 02:19:47;;;;;;;2.47;1.25;;;;;;;;;;5022343;28;20053;-82
2024/04/06 02:22:13;;;;;;;3.72;1.33;;;;;;;;;;5021295;28;20053;-81
2024/04/06 02:24:40;;;;;;;2.63;1.00;;;;;;;;;;4996703;28;20424;-80
2024/04/06 02:27:06;;;;;;;4.05;1.25;;;;;;;;;;5008185;28;20053;-81
2024/04/06 02:29:32;;;;;;;1.80;0.80;;;;;;;;;;4996342;28;20054;-80
2024/04/06 02:31:58;;;;;;;1.67;1.00;;;;;;;;;;4996185;28;20504;-81
2024/04/06 02:34:26;;;;;;;2.38;0.88;;;;;;;;;;5006578;28;20046;-81
2024/04/06 02:36:52;;;;;;;2.67;1.08;;;;;;;;;;5012056;28;20096;-81
2024/04/06 02:39:18;;;;;;;3.30;1.27;;;;;;;;;;5012442;28;20073;-81
2024/04/06 02:41:44;;;;;;;0.90;0.90;;;;;;;;;;4995612;28;20050;-81
2024/04/06 02:44:11;;;;;;;4.55;1.00;;;;;;;;;;4996253;28;20049;-81
2024/04/06 02:46:37;;;;;;;2.33;1.13;;;;;;;;;;4995773;28;20516;-80
2024/04/06 02:49:03;;;;;;;3.58;1.17;;;;;;;;;;5010495;28;20050;-81
2024/04/06 02:51:29;;;;;;;1.55;1.23;;;;;;;;;;5017938;28;20030;-81
2024/04/06 02:53:56;;;;;;;3.10;1.00;;;;;;;;;;5013028;28;20570;-82
2024/04/06 02:56:22;;;;;;;1.80;1.20;;;;;;;;;;5016537;28;20524;-82
2024/04/06 02:58:48;;;;;;;2.40;0.90;;;;;;;;;;4999642;28;20053;-82
2024/04/06 03:01:14;;;;;;;3.17;1.10;;;;;;;;;;5016383;28;20054;-81
2024/04/06 03:03:41;;;;;;;1.23;1.13;;;;;;;;;;5016286;28;20468;-82
2024/04/06 03:06:07;;;;;;;1.00;0.77;;;;;;;;;;5014581;28;20112;-82
2024/04/06 03:08:34;;;;;;;1.38;0.80;;;;;;;;;;5000265;28;20108;-82
2024/04/06 03:11:00;;;;;;;2.38;1.10;;;;;;;;;;5003107;28;20057;-82
2024/04/06 03:13:26;;;;;;;1.35;1.00;;;;;;;;;;5018529;28;20068;-82
2024/04/06 03:15:52;;;;;;;1.83;0.82;;;;;;;;;;4995645;28;20058;-81
2024/04/06 03:18:19;;;;;;;1.00;0.77;;;;;;;;;;5011782;28;20104;-80
2024/04/06 03:20:45;;;;;;;3.50;0.93;;;;;;;;;;5005382;28;20050;-81
2024/04/06 03:23:11;;;;;;;4.47;1.08;;;;;;;;;;4995899;28;20104;-81
2024/04/06 03:25:38;;;;;;;2.72;1.05;;;;;;;;;;5012250;28;20046;-81
2024/04/06 03:28:04;;;;;;;2.28;1.10;;;;;;;;;;5020384;28;20073;-81
2024/04/06 03:30:30;;;;;;;2.22;1.05;;;;;;;;;;4995956;28;20104;-81
2024/04/06 03:32:57;;;;;;;1.48;1.00;;;;;;;;;;4996445;28;20058;-82
2024/04/06 03:35:23;;;;;;;3.10;1.02;;;;;;;;;;4995938;28;20050;-82
2024/04/06 03:37:50;;;;;;;2.72;1.05;;;;;;;;;;4995856;28;20053;-81
2024/04/06 03:40:17;;;;;;;2.72;1.50;;;;;;;;;;4996030;28;20054;-81
2024/04/06 03:42:43;;;;;;;2.85;1.30;;;;;;;;;;4994289;28;20054;-81
2024/04/06 03:45:12;;;;;;;5.75;1.35;;;;;;;;;;5012980;28;20108;-81
2024/04/06 03:47:39;;;;;;;4.10;1.10;;;;;;;;;;4998001;28;20451;-82
2024/04/06 03:50:05;;;;;;;3.08;1.02;;;;;;;;;;5018716;28;20550;-83
2024/04/06 03:52:32;;;;;;;1.63;0.90;;;;;;;;;;5017007;28;20523;-83
2024/04/06 03:54:58;;;;;;;2.38;1.52;;;;;;;;;;5003516;28;20058;-83
2024/04/06 03:57:24;;;;;;;3.38;1.05;;;;;;;;;;5003454;28;20050;-81
2024/04/06 03:59:50;;;;;;;2.75;1.10;;;;;;;;;;5003521;28;20065;-83
2024/04/06 04:02:16;;;;;;;2.50;1.40;;;;;;;;;;5006580;28;20057;-82
2024/04/06 04:04:43;;;;;;;5.95;1.73;;;;;;;;;;5000614;28;20054;-83
2024/04/06 04:07:09;;;;;;;3.20;1.13;;;;;;;;;;5000449;28;20049;-81
2024/04/06 04:09:35;;;;;;;4.40;2.15;;;;;;;;;;5008414;28;20049;-82
2024/04/06 04:12:01;;;;;;;4.00;2.22;;;;;;;;;;4999239;28;20061;-82
2024/04/06 04:14:28;;;;;;;3.97;2.55;;;;;;;;;;5006552;28;20065;-82
2024/04/06 04:16:54;;;;;;;6.82;2.63;;;;;;;;;;5001102;28;20058;-82
2024/04/06 04:19:21;;;;;;;2.85;1.95;;;;;;;;;;5003927;28;20045;-83
2024/04/06 04:21:47;;;;;;;3.80;1.55;;;;;;;;;;5008535;28;20046;-82
2024/04/06 04:24:13;;;;;;;4.38;1.70;;;;;;;;;;5002390;28;20131;-82
2024/04/06 04:26:39;;;;;;;1.05;1.02;;;;;;;;;;5001825;28;20555;-82
2024/04/06 04:29:06;;;;;;;1.10;1.00;;;;;;;;;;5001948;28;20050;-81
2024/04/06 04:31:32;;;;;;;4.78;1.35;;;;;;;;;;5017528;28;20542;-80
2024/04/06 04:33:58;;;;;;;5.90;1.60;;;;;;;;;;5009103;28;20054;-82
2024/04/06 04:36:25;;;;;;;1.73;1.10;;;;;;;;;;5001163;28;20112;-82
2024/04/06 04:38:51;;;;;;;1.83;1.30;;;;;;;;;;5000690;28;20046;-81
2024/04/06 04:41:17;;;;;;;1.77;1.30;;;;;;;;;;4999509;28;20057;-82
2024/04/06 04:43:44;;;;;;;5.45;1.67;;;;;;;;;;5001198;28;20054;-82
2024/04/06 04:46:11;;;;;;;2.30;1.60;;;;;;;;;;5006500;28;20068;-82
2024/04/06 04:48:56;;;;;;;1.63;1.20;;;;;;;;;;4998714;28;20525;-81
2024/04/06 04:51:23;;;;;;;1.20;1.10;;;;;;;;;;4996739;28;20046;-81
2024/04/06 04:53:52;;;;;;;2.22;1.45;;;;;;;;;;5006219;28;20047;-81
2024/04/06 04:56:19;;;;;;;2.63;1.20;;;;;;;;;;4998349;28;20053;-81
2024/04/06 04:58:46;;;;;;;3.05;1.27;;;;;;;;;;5014755;28;20050;-81
2024/04/06 05:01:12;;;;;;;2.72;1.40;;;;;;;;;;4997798;28;20054;-81
2024/04/06 05:03:38;;;;;;;2.17;1.40;;;;;;;;;;4997754;28;20058;-81
2024/04/06 05:06:05;;;;;;;3.95;1.20;;;;;;;;;;4997858;28;20582;-81
2024/04/06 05:08:31;;;;;;;2.88;0.98;;;;;;;;;;5014651;28;20501;-81
2024/04/06 05:10:57;;;;;;;4.93;1.35;;;;;;;;;;4998317;28;20096;-81
2024/04/06 05:13:24;;;;;;;2.08;1.20;;;;;;;;;;5014538;28;20060;-81
2024/04/06 05:15:52;;;;;;;1.27;1.17;;;;;;;;;;4998530;28;20057;-82
2024/04/06 05:18:19;;;;;;;3.35;1.20;;;;;;;;;;5005505;28;20064;-83
2024/04/06 05:20:49;;;;;;;2.72;1.10;;;;;;;;;;5022860;28;20060;-83
2024/04/06 05:23:15;;;;;;;1.10;1.10;;;;;;;;;;5001801;28;20046;-83
2024/04/06 05:25:42;;;;;;;2.35;1.20;;;;;;;;;;5013013;28;20061;-83
2024/04/06 05:28:08;;;;;;;2.88;1.30;;;;;;;;;;5020108;28;20424;-84
2024/04/06 05:30:34;;;;;;;1.83;1.35;;;;;;;;;;5010264;28;20111;-83
2024/04/06 05:33:00;;;;;;;1.90;1.20;;;;;;;;;;5001930;28;20053;-83
2024/04/06 05:35:26;;;;;;;4.75;1.10;;;;;;;;;;5018872;28;20058;-84
2024/04/06 05:37:53;;;;;;;3.47;1.60;;;;;;;;;;5001733;28;20061;-83
2024/04/06 05:40:19;;;;;;;1.92;1.17;;;;;;;;;;5001932;28;20104;-82
2024/04/06 05:42:46;;;;;;;1.73;1.25;;;;;;;;;;5001091;28;20057;-83
2024/04/06 05:45:12;;;;;;;2.65;1.10;;;;;;;;;;5008773;28;20050;-83
2024/04/06 05:47:38;;;;;;;4.82;1.30;;;;;;;;;;5001164;28;20076;-83
2024/04/06 05:50:05;;;;;;;5.03;1.60;;;;;;;;;;5000591;28;20045;-83
2024/04/06 05:52:31;;;;;;;3.40;1.88;;;;;;;;;;5001661;28;20475;-83
2024/04/06 05:54:59;;;;;;;7.70;2.40;;;;;;;;;;5014889;28;20091;-84
2024/04/06 05:57:25;;;;;;;5.53;2.50;;;;;;;;;;5025225;28;20068;-82
2024/04/06 05:59:52;;;;;;;6.47;2.85;;;;;;;;;;5024544;28;20057;-84
2024/04/06 06:02:18;;;;;;;3.78;2.42;;;;;;;;;;5007317;28;20053;-84
2024/04/06 06:04:44;;;;;;;3.95;1.75;;;;;;;;;;5007325;28;20050;-84
2024/04/06 06:07:10;;;;;;;2.83;1.83;;;;;;;;;;5006332;28;20053;-84
2024/04/06 06:09:37;;;;;;;3.80;2.30;;;;;;;;;;5023415;28;20054;-84
2024/04/06 06:12:03;;;;;;;5.43;2.42;;;;;;;;;;5007002;28;20116;-83
2024/04/06 06:14:29;;;;;;;14.20;10.18;;;;;;;;;;5006318;28;20058;-84
2024/04/06 06:16:56;;;;;;;5.50;4.20;;;;;;;;;;5021934;28;20053;-83
2024/04/06 06:19:22;;;;;;;2.80;2.30;;;;;;;;;;5006233;28;20069;-83
2024/04/06 06:21:48;;;;;;;13.32;9.00;;;;;;;;;;5013968;28;20076;-83
2024/04/06 06:24:14;;;;;;;11.75;9.93;;;;;;;;;;5011101;28;20050;-83
2024/04/06 06:26:40;;;;;;;4.43;4.00;;;;;;;;;;5004274;28;20053;-82
2024/04/06 06:29:07;;;;;;;3.33;2.85;;;;;;;;;;4996504;28;20057;-82
2024/04/06 06:31:33;;;;;;;4.15;1.90;;;;;;;;;;4996513;28;20057;-82
2024/04/06 06:33:59;;;;;;;7.57;6.30;;;;;;;;;;5000500;28;20069;-83
2024/04/06 06:36:25;;;;;;;2.17;1.30;;;;;;;;;;5001077;28;20054;-82
2024/04/06 06:38:52;;;;;;;1.33;0.98;;;;;;;;;;5014549;28;20116;-83
2024/04/06 06:41:18;;;;;;;4.03;1.27;;;;;;;;;;5018738;28;20069;-84
2024/04/06 06:43:45;;;;;;;1.05;0.90;;;;;;;;;;5001656;28;20050;-84
2024/04/06 06:46:11;;;;;;;1.50;1.40;;;;;;;;;;5001495;28;20401;-83
2024/04/06 06:48:37;;;;;;;1.25;1.10;;;;;;;;;;5003341;28;20053;-84
2024/04/06 06:51:03;;;;;;;5.25;1.30;;;;;;;;;;5028762;28;20058;-84
2024/04/06 06:53:30;;;;;;;1.38;1.02;;;;;;;;;;5025221;28;20061;-83
2024/04/06 06:55:56;;;;;;;3.30;1.63;;;;;;;;;;5024029;28;20057;-84
2024/04/06 06:58:22;;;;;;;1.48;1.10;;;;;;;;;;5025646;28;20054;-84
2024/04/06 07:00:48;;;;;;;3.08;1.00;;;;;;;;;;5004619;28;20053;-84
2024/04/06 07:03:15;;;;;;;2.17;1.10;;;;;;;;;;5005916;28;20057;-82
2024/04/06 07:05:41;;;;;;;3.13;1.15;;;;;;;;;;4997268;28;20575;-84
2024/04/06 07:08:08;;;;;;;1.75;1.10;;;;;;;;;;5018298;28;20045;-83
2024/04/06 07:10:38;;;;;;;2.10;0.93;;;;;;;;;;5023067;28;20061;-83
2024/04/06 07:13:05;;;;;;;2.22;0.95;;;;;;;;;;4998227;28;20429;-83
2024/04/06 07:15:32;;;;;;;1.70;0.60;;;;;;;;;;4998264;28;20050;-85
2024/04/06 07:17:58;;;;;;;0.98;0.80;;;;;;;;;;5000957;28;20053;-83
2024/04/06 07:20:25;;;;;;;1.55;0.82;;;;;;;;;;5001690;28;20060;-84
2024/04/06 07:22:51;;;;;;;2.28;0.98;;;;;;;;;;4997514;28;20060;-84
2024/04/06 07:25:19;;;;;;;1.90;0.68;;;;;;;;;;4996168;28;20046;-83
2024/04/06 07:27:45;;;;;;;2.75;0.70;;;;;;;;;;4996904;28;20046;-84
2024/04/06 07:30:11;;;;;;;2.58;0.98;;;;;;;;;;5006521;28;20148;-81
2024/04/06 07:32:37;;;;;;;1.92;1.00;;;;;;;;;;5008072;28;20574;-84
2024/04/06 07:35:05;;;;;;;1.40;0.95;;;;;;;;;;4999580;28;20061;-83
2024/04/06 07:37:32;;;;;;;2.25;1.05;;;;;;;;;;5006292;28;20505;-84
2024/04/06 07:39:58;;;;;;;0.85;0.80;;;;;;;;;;4984839;28;20058;-82
2024/04/06 07:42:26;;;;;;;3.28;0.90;;;;;;;;;;5007853;28;20420;-83
2024/04/06 07:44:52;;;;;;;0.88;0.70;;;;;;;;;;5012513;28;20108;-82
2024/04/06 07:47:18;;;;;;;4.88;1.00;;;;;;;;;;5007547;28;20428;-82
2024/04/06 07:49:45;;;;;;;2.08;0.80;;;;;;;;;;4997775;28;20054;-84
2024/04/06 07:52:11;;;;;;;6.00;0.80;;;;;;;;;;5020688;28;20152;-81
2024/04/06 07:54:37;;;;;;;1.20;0.70;;;;;;;;;;4997316;28;20500;-85
2024/04/06 07:57:05;;;;;;;1.02;0.82;;;;;;;;;;5020315;28;20098;-83
2024/04/06 07:59:33;;;;;;;6.50;1.30;;;;;;;;;;5000180;28;20099;-83
2024/04/06 08:01:59;;;;;;;1.95;0.98;;;;;;;;;;4996716;28;20521;-83
2024/04/06 08:04:27;;;;;;;1.15;0.75;;;;;;;;;;5000585;28;20054;-84
2024/04/06 08:06:53;;;;;;;4.88;1.00;;;;;;;;;;5003068;28;20059;-84
2024/04/06 08:09:19;;;;;;;1.75;1.00;;;;;;;;;;5011838;28;20049;-84
2024/04/06 08:11:45;;;;;;;1.80;0.70;;;;;;;;;;5022621;28;20050;-83
2024/04/06 08:14:12;;;;;;;2.70;0.75;;;;;;;;;;5014673;28;20054;-83
2024/04/06 08:16:40;;;;;;;2.83;1.00;;;;;;;;;;4998432;28;20506;-84
2024/04/06 08:19:07;;;;;;;4.10;0.77;;;;;;;;;;4998191;28;20058;-84
2024/04/06 08:21:33;;;;;;;3.75;0.98;;;;;;;;;;5007378;28;20054;-84
2024/04/06 08:23:59;;;;;;;2.33;0.68;;;;;;;;;;5007195;28;20052;-85
2024/04/06 08:26:26;;;;;;;2.13;0.70;;;;;;;;;;5021111;28;20046;-84
2024/04/06 08:28:52;;;;;;;2.30;0.60;;;;;;;;;;5002716;28;20580;-85
2024/04/06 08:31:19;;;;;;;3.58;0.70;;;;;;;;;;5008302;28;20057;-85
2024/04/06 08:33:45;;;;;;;2.40;0.90;;;;;;;;;;5028317;28;20054;-83
2024/04/06 08:36:11;;;;;;;9.77;0.93;;;;;;;;;;5021928;28;20080;-84
2024/04/06 08:38:38;;;;;;;0.95;0.63;;;;;;;;;;5021449;28;20504;-84
2024/04/06 08:41:10;;;;;;;1.25;0.80;;;;;;;;;;4996814;28;20050;-84
2024/04/06 08:43:43;;;;;;;0.60;0.60;;;;;;;;;;4996581;28;20097;-84
2024/04/06 08:46:10;;;;;;;1.88;0.68;;;;;;;;;;4995790;28;20057;-82
2024/04/06 08:48:38;;;;;;;2.05;0.50;;;;;;;;;;4997853;28;20053;-84
2024/04/06 08:51:06;;;;;;;1.27;0.52;;;;;;;;;;4994641;28;20058;-84
2024/04/06 08:53:33;;;;;;;5.43;0.70;;;;;;;;;;5008269;28;20050;-83
2024/04/06 08:56:04;;;;;;;2.70;0.80;;;;;;;;;;5017096;28;20054;-83
2024/04/06 08:58:30;;;;;;;0.98;0.73;;;;;;;;;;5013235;28;20054;-85
2024/04/06 09:00:57;;;;;;;2.60;0.68;;;;;;;;;;5026307;28;20054;-82
2024/04/06 09:03:24;;;;;;;0.63;0.60;;;;;;;;;;4974984;28;1029955;-83
2024/04/06 09:05:50;;;;;;;0.77;0.63;;;;;;;;;;5001164;28;20050;-83
2024/04/06 09:08:16;;;;;;;2.70;0.68;;;;;;;;;;5015791;28;20050;-85
2024/04/06 09:10:43;;;;;;;1.40;0.63;;;;;;;;;;5011276;28;20598;-83
2024/04/06 09:13:11;;;;;;;1.85;0.70;;;;;;;;;;4998757;28;20054;-84
2024/04/06 09:15:38;;;;;;;2.75;0.63;;;;;;;;;;5006443;28;20571;-82
2024/04/06 09:18:04;;;;;;;2.53;0.70;;;;;;;;;;4997023;28;20111;-81
2024/04/06 09:20:31;;;;;;;4.28;0.57;;;;;;;;;;5000739;28;20410;-85
2024/04/06 09:22:58;;;;;;;6.28;1.20;;;;;;;;;;5021833;28;20050;-85
2024/04/06 09:25:25;;;;;;;8.43;0.80;;;;;;;;;;5005282;28;20057;-83
2024/04/06 09:27:51;;;;;;;2.15;0.60;;;;;;;;;;5012925;28;20056;-82
2024/04/06 09:30:24;;;;;;;2.55;0.70;;;;;;;;;;5005488;28;20049;-84
2024/04/06 09:32:50;;;;;;;;;;;;;;;;;;5002338;28;20061;-84
2024/04/06 09:35:17;;;;;;;1.95;0.90;;;;;;;;;;5000003;28;20308;-82
2024/04/06 09:37:47;;;;;;;1.77;0.90;;;;;;;;;;5007402;28;20416;-83
2024/04/06 09:40:13;;;;;;;13.35;2.75;;;;;;;;;;4996629;28;20109;-84
2024/04/06 09:42:40;;;;;;;0.70;0.55;;;;;;;;;;4994667;28;20053;-85
2024/04/06 09:45:06;;;;;;;2.10;0.70;;;;;;;;;;5014165;28;20108;-83
2024/04/06 09:47:33;;;;;;;2.72;0.98;;;;;;;;;;5006088;28;20050;-84
2024/04/06 09:50:00;;;;;;;2.10;0.95;;;;;;;;;;5005458;28;20061;-81
2024/04/06 09:52:27;;;;;;;39.55;3.92;;;;;;;;;;4997477;28;20053;-81
2024/04/06 09:54:54;;;;;;;6.43;0.70;;;;;;;;;;5010978;28;20061;-82
2024/04/06 09:57:21;;;;;;;2.95;1.23;;;;;;;;;;5005420;28;20057;-80
2024/04/06 09:59:48;;;;;;;0.50;0.50;;;;;;;;;;5011404;28;20065;-83
2024/04/06 10:02:21;;;;;;;26.55;7.18;;;;;;;;;;5021733;28;20050;-85
2024/04/06 10:04:54;;;;;;;10.30;1.00;;;;;;;;;;4997667;28;20100;-84
2024/04/06 10:07:26;;;;;;;0.80;0.60;;;;;;;;;;5016622;28;20046;-85
2024/04/06 10:10:13;;;;;;;0.93;0.65;;;;;;;;;;5031783;28;20068;-85
2024/04/06 10:12:45;;;;;;;0.90;0.55;;;;;;;;;;5002255;28;20053;-85
2024/04/06 10:15:16;;;;;;;0.82;0.75;;;;;;;;;;5004273;28;20060;-84
2024/04/06 10:17:43;;;;;;;1.95;0.60;;;;;;;;;;5030071;28;20064;-85
2024/04/06 10:20:15;;;;;;;2.58;0.70;;;;;;;;;;5012032;28;20068;-85
2024/04/06 10:22:45;;;;;;;4.80;0.90;;;;;;;;;;5020649;28;20050;-85
2024/04/06 10:25:12;;;;;;;1.65;0.98;;;;;;;;;;5008374;28;20054;-85
2024/04/06 10:27:38;;;;;;;2.17;0.55;;;;;;;;;;5020149;28;20052;-84
2024/04/06 10:30:05;;;;;;;1.38;0.70;;;;;;;;;;5012623;28;20419;-84
2024/04/06 10:32:33;;;;;;;1.05;0.60;;;;;;;;;;5019309;28;20057;-84
2024/04/06 10:35:03;;;;;;;1.60;0.70;;;;;;;;;;5002006;28;20054;-84
2024/04/06 10:37:32;;;;;;;2.30;0.75;;;;;;;;;;5018163;28;20100;-86
2024/04/06 10:39:58;;;;;;;6.15;0.65;;;;;;;;;;5022668;28;20603;-85
2024/04/06 10:42:27;;;;;;;1.67;0.65;;;;;;;;;;5012319;28;20613;-83
2024/04/06 10:44:54;;;;;;;1.95;0.80;;;;;;;;;;5009314;28;20058;-85
2024/04/06 10:47:22;;;;;;;0.60;0.60;;;;;;;;;;5011031;28;20049;-87
2024/04/06 10:49:52;;;;;;;2.05;0.70;;;;;;;;;;5011629;28;20497;-84
2024/04/06 10:52:19;;;;;;;0.60;0.60;;;;;;;;;;5003254;28;20058;-86
2024/04/06 10:54:45;;;;;;;3.25;0.50;;;;;;;;;;5008507;28;20124;-84
2024/04/06 10:57:11;;;;;;;4.72;0.75;;;;;;;;;;5010381;28;20057;-86
2024/04/06 10:59:38;;;;;;;0.77;0.70;;;;;;;;;;5019689;28;20050;-86
2024/04/06 11:02:06;;;;;;;2.70;0.75;;;;;;;;;;5015335;28;20057;-85
2024/04/06 11:04:36;;;;;;;4.82;0.90;;;;;;;;;;5007658;28;20038;-86
2024/04/06 11:07:02;;;;;;;1.80;0.77;;;;;;;;;;5037090;28;20060;-85
2024/04/06 11:09:29;;;;;;;3.17;0.55;;;;;;;;;;5007494;28;20058;-83
2024/04/06 11:11:55;;;;;;;1.88;0.50;;;;;;;;;;5041692;28;20111;-83
2024/04/06 11:14:25;;;;;;;2.72;0.80;;;;;;;;;;5030327;28;20079;-85
2024/04/06 11:16:53;;;;;;;0.88;0.70;;;;;;;;;;5004056;28;20054;-85
2024/04/06 11:19:20;;;;;;;2.28;0.60;;;;;;;;;;5015000;28;20037;-86
2024/04/06 11:21:46;;;;;;;2.85;0.70;;;;;;;;;;5022926;28;20408;-86
2024/04/06 11:24:13;;;;;;;0.60;0.60;;;;;;;;;;5009961;28;20456;-83
2024/04/06 11:26:42;;;;;;;3.55;0.77;;;;;;;;;;4999644;28;20100;-86
2024/04/06 11:29:12;;;;;;;1.63;0.77;;;;;;;;;;5003862;28;20056;-85
2024/04/06 11:31:38;;;;;;;1.65;0.70;;;;;;;;;;5010993;28;20046;-86
2024/04/06 11:34:05;;;;;;;6.22;0.88;;;;;;;;;;5011195;28;20064;-85
2024/04/06 11:36:32;;;;;;;1.17;0.70;;;;;;;;;;5012776;28;20076;-86
2024/04/06 11:38:59;;;;;;;0.93;0.68;;;;;;;;;;5007121;28;20054;-85
2024/04/06 11:41:25;;;;;;;1.92;0.50;;;;;;;;;;5009851;28;20058;-86
2024/04/06 11:43:51;;;;;;;2.28;0.55;;;;;;;;;;5024569;28;20042;-86
2024/04/06 11:46:17;;;;;;;3.28;0.70;;;;;;;;;;5009898;28;20054;-85
2024/04/06 11:48:44;;;;;;;1.35;0.60;;;;;;;;;;5011154;28;20057;-83
2024/04/06 11:51:10;;;;;;;2.97;0.70;;;;;;;;;;5013894;28;20053;-85
2024/04/06 11:53:36;;;;;;;1.02;0.68;;;;;;;;;;5003120;28;20062;-85
2024/04/06 11:56:03;;;;;;;3.25;0.80;;;;;;;;;;5000873;28;20050;-86
2024/04/06 11:58:29;;;;;;;0.75;0.55;;;;;;;;;;5010259;28;20057;-85
2024/04/06 12:00:55;;;;;;;3.17;0.50;;;;;;;;;;5014112;28;20416;-83
2024/04/06 12:03:25;;;;;;;1.10;0.70;;;;;;;;;;5007855;28;20046;-85
2024/04/06 12:05:51;;;;;;;1.40;0.60;;;;;;;;;;5010537;28;20479;-85
2024/04/06 12:08:18;;;;;;;2.97;0.60;;;;;;;;;;5016614;28;20416;-85
2024/04/06 12:10:45;;;;;;;2.47;0.70;;;;;;;;;;5009049;28;20053;-84
2024/04/06 12:13:11;;;;;;;1.23;0.50;;;;;;;;;;5014949;28;20061;-86
2024/04/06 12:15:40;;;;;;;0.90;0.70;;;;;;;;;;5012266;28;20077;-86
2024/04/06 12:18:08;;;;;;;1.98;0.68;;;;;;;;;;5009645;28;20054;-85
2024/04/06 12:20:35;;;;;;;0.95;0.60;;;;;;;;;;5018949;28;20054;-85
2024/04/06 12:23:01;;;;;;;2.97;0.75;;;;;;;;;;5016736;28;20479;-86
2024/04/06 12:25:30;;;;;;;1.88;0.50;;;;;;;;;;5018280;28;20046;-85
2024/04/06 12:27:57;;;;;;;1.95;0.60;;;;;;;;;;5017092;28;20405;-86
2024/04/06 12:30:23;;;;;;;2.30;0.60;;;;;;;;;;5010093;28;20056;-84
2024/04/06 12:32:49;;;;;;;5.05;0.60;;;;;;;;;;5025174;28;20057;-86
2024/04/06 12:35:15;;;;;;;0.70;0.50;;;;;;;;;;5031881;28;20061;-85
2024/04/06 12:37:43;;;;;;;0.45;0.45;;;;;;;;;;5015339;28;20064;-86
2024/04/06 12:40:10;;;;;;;1.02;0.60;;;;;;;;;;5019966;28;20054;-85
2024/04/06 12:42:39;;;;;;;1.80;0.65;;;;;;;;;;5039748;28;20050;-86
2024/04/06 12:45:06;;;;;;;0.80;0.52;;;;;;;;;;5025630;28;20057;-86
2024/04/06 12:47:32;;;;;;;2.75;0.60;;;;;;;;;;5023178;28;20049;-86
2024/04/06 12:49:58;;;;;;;0.75;0.47;;;;;;;;;;5019993;28;20046;-85
2024/04/06 12:52:25;;;;;;;1.45;0.70;;;;;;;;;;5041357;28;20049;-85
2024/04/06 12:54:52;;;;;;;4.53;0.50;;;;;;;;;;5003435;28;20058;-85
2024/04/06 12:57:36;;;;;;;0.68;0.40;;;;;;;;;;5011581;28;20045;-86
2024/04/06 13:00:06;;;;;;;1.50;0.40;;;;;;;;;;5041626;28;20424;-85
2024/04/06 13:02:36;;;;;;;2.78;0.60;;;;;;;;;;5009210;28;20054;-84
2024/04/06 13:05:03;;;;;;;0.70;0.47;;;;;;;;;;4995334;28;20050;-83
2024/04/06 13:07:29;;;;;;;0.95;0.50;;;;;;;;;;4998367;28;20047;-86
2024/04/06 13:10:00;;;;;;;2.38;0.60;;;;;;;;;;4993048;28;20424;-84
2024/04/06 13:12:30;;;;;;;1.13;0.70;;;;;;;;;;5007665;28;20511;-83
2024/04/06 13:15:07;;;;;;;1.63;0.60;;;;;;;;;;4993737;28;20516;-84
2024/04/06 13:17:33;;;;;;;1.27;0.70;;;;;;;;;;5007746;28;20060;-85
2024/04/06 13:22:44;;;;;;;0.98;0.60;;;;;;;;;;5028812;28;20104;-86
2024/04/06 13:25:25;;;;;;;1.05;0.65;;;;;;;;;;5035232;28;20041;-83
2024/04/06 13:27:57;;;;;;;2.83;1.00;;;;;;;;;;5021511;28;20050;-84
2024/04/06 13:30:25;;;;;;;1.65;0.70;;;;;;;;;;5011004;28;20050;-85
2024/04/06 13:32:53;;;;;;;1.20;0.70;;;;;;;;;;5002711;28;20069;-86
2024/04/06 13:35:20;;;;;;;2.17;0.50;;;;;;;;;;5016788;28;20077;-86
2024/04/06 13:37:46;;;;;;;0.50;0.50;;;;;;;;;;5024871;28;20053;-86
2024/04/06 13:40:17;;;;;;;0.52;0.50;;;;;;;;;;5037011;28;20050;-86
2024/04/06 13:42:44;;;;;;;1.17;0.60;;;;;;;;;;5017111;28;20049;-85
2024/04/06 13:45:13;;;;;;;3.03;0.80;;;;;;;;;;5029959;28;20054;-86
2024/04/06 13:47:40;;;;;;;1.23;0.70;;;;;;;;;;5001612;28;20419;-86
2024/04/06 13:50:07;;;;;;;2.85;0.70;;;;;;;;;;5008262;28;20065;-86
2024/04/06 13:52:33;;;;;;;1.13;0.63;;;;;;;;;;5002989;28;20049;-84
2024/04/06 13:54:59;;;;;;;3.88;0.57;;;;;;;;;;5026261;28;20057;-84
2024/04/06 13:57:26;;;;;;;2.55;0.80;;;;;;;;;;5008983;28;20058;-83
2024/04/06 13:59:55;;;;;;;2.67;0.60;;;;;;;;;;5027338;28;20050;-87
2024/04/06 14:02:22;;;;;;;1.27;0.75;;;;;;;;;;5019160;28;20061;-85
2024/04/06 14:04:48;;;;;;;2.78;0.80;;;;;;;;;;5006886;28;20128;-85
2024/04/06 14:07:14;;;;;;;0.98;0.85;;;;;;;;;;5015417;28;20081;-85
2024/04/06 14:09:41;;;;;;;0.63;0.40;;;;;;;;;;5007180;28;20053;-85
2024/04/06 14:12:07;;;;;;;0.80;0.50;;;;;;;;;;5021809;28;20099;-86
2024/04/06 14:14:34;;;;;;;0.65;0.52;;;;;;;;;;5009170;28;20061;-86
2024/04/06 14:17:01;;;;;;;1.90;0.70;;;;;;;;;;5020434;28;20050;-87
2024/04/06 14:19:27;;;;;;;0.60;0.60;;;;;;;;;;5005394;28;20108;-86
2024/04/06 14:21:54;;;;;;;1.42;0.70;;;;;;;;;;5030347;28;20072;-84
2024/04/06 14:24:21;;;;;;;1.20;0.70;;;;;;;;;;5008841;28;20041;-86
2024/04/06 14:26:52;;;;;;;0.70;0.50;;;;;;;;;;5011752;28;20050;-85
2024/04/06 14:29:19;;;;;;;3.25;0.60;;;;;;;;;;5024914;28;20050;-86
2024/04/06 14:31:55;;;;;;;1.85;0.40;;;;;;;;;;5023506;28;20058;-86
2024/04/06 14:34:21;;;;;;;0.57;0.57;;;;;;;;;;4997686;28;20058;-86
2024/04/06 14:36:50;;;;;;;3.17;0.57;;;;;;;;;;5000146;28;20406;-86
2024/04/06 14:39:17;;;;;;;2.10;0.60;;;;;;;;;;5022249;28;20083;-87
2024/04/06 14:41:43;;;;;;;0.90;0.63;;;;;;;;;;5006306;28;20057;-85
2024/04/06 14:44:10;;;;;;;3.78;0.68;;;;;;;;;;5009942;28;20053;-81